PWSweather.com
Personal Weather Stations
Station Observations
KWINECED3
Necedah, WI 54646

Necedah, WI 54646

Lat: 43.9985333333333, Lon: -89.9915833333333

Elevation: 890

Station Type: Ambient WS1090

http://weather.starosta.org

Latest ConditionsUpdated 7:00:02 AM CDT Sunday, Oct 22, 2017
Currently Today's Max Today's Min Today's Average
Temperature 54.0°F12.2°C 70.0°F21.1°C 54.0°F12.2°C 60.1°F15.6°C
Dew Point 54.0°F12.2°C 62.5°F16.9°C 54.0°F12.2°C 58.9°F14.9°C
Winds Calm Calm 2.0 mph WNW3.2 kmh WNW - 0.2 mph 0.3 kmh
Wind Gusts 2.0 mph3.2 kmh 57.0 mph91.7 kmh - -
Humidity 100% 100% 77% 96%
Pressure 30.04 in1017.3 mb 30.04 in1017.3 mb 29.95 in1014.2 mb -
Precipitation - 0.01 in0.3 mm - -
Hour Temp Dew Point Humidity Winds Wind Gusts Pressure Precip Precip Rate Daily Precip Total
07:00 AM 54.0°F12.2°C 54.0°F12.2°C 100% Calm Calm 2.0 mph3.2 kmh 30.04 in1017.3 mb 0.00 in0.0 mm 0.00 in0.0 mm 0.01 in0.3 mm
06:45 AM 54.1°F12.3°C 54.1°F12.3°C 100% Calm Calm 3.9 mph6.3 kmh 30.03 in1016.9 mb 0.00 in0.0 mm 0.00 in0.0 mm 0.01 in0.3 mm
06:30 AM 54.1°F12.3°C 54.1°F12.3°C 100% Calm Calm 2.8 mph4.5 kmh 30.02 in1016.6 mb 0.00 in0.0 mm 0.00 in0.0 mm 0.01 in0.3 mm
06:15 AM 54.3°F12.4°C 54.3°F12.4°C 100% Calm Calm 2.8 mph4.5 kmh 30.02 in1016.6 mb 0.00 in0.0 mm 0.00 in0.0 mm 0.01 in0.3 mm
06:00 AM 54.5°F12.5°C 54.5°F12.5°C 100% 0.8 mph NW1.3 kmh NW 3.9 mph6.3 kmh 30.01 in1016.3 mb 0.00 in0.0 mm 0.00 in0.0 mm 0.01 in0.3 mm
05:45 AM 54.7°F12.6°C 54.7°F12.6°C 100% Calm Calm 57.0 mph91.7 kmh 30.02 in1016.6 mb 0.00 in0.0 mm 0.00 in0.0 mm 0.01 in0.3 mm
05:30 AM 55.0°F12.8°C 55.0°F12.8°C 100% Calm Calm 4.8 mph7.7 kmh 30.02 in1016.6 mb 0.00 in0.0 mm 0.00 in0.0 mm 0.01 in0.3 mm
05:15 AM 55.9°F13.3°C 56.0°F13.3°C 100% 2.0 mph WNW3.2 kmh WNW 7.5 mph12.1 kmh 30.01 in1016.3 mb 0.00 in0.0 mm 0.00 in0.0 mm 0.01 in0.3 mm
05:00 AM 56.8°F13.8°C 56.9°F13.8°C 100% Calm Calm 8.7 mph14.0 kmh 30.00 in1015.9 mb 0.00 in0.0 mm 0.00 in0.0 mm 0.01 in0.3 mm
04:45 AM 59.0°F15.0°C 59.0°F15.0°C 100% 0.8 mph SW1.3 kmh SW 10.3 mph16.6 kmh 29.99 in1015.6 mb 0.00 in0.0 mm 0.00 in0.0 mm 0.01 in0.3 mm
04:30 AM 60.1°F15.6°C 60.1°F15.6°C 100% Calm Calm 0.8 mph1.3 kmh 29.97 in1014.9 mb 0.00 in0.0 mm 0.00 in0.0 mm 0.01 in0.3 mm
04:15 AM 60.1°F15.6°C 60.1°F15.6°C 100% Calm Calm -- 29.98 in1015.2 mb 0.00 in0.0 mm 0.00 in0.0 mm 0.01 in0.3 mm
04:00 AM 60.1°F15.6°C 60.1°F15.6°C 100% Calm Calm 0.8 mph1.3 kmh 29.97 in1014.9 mb 0.00 in0.0 mm 0.00 in0.0 mm 0.01 in0.3 mm
03:45 AM 60.1°F15.6°C 60.1°F15.6°C 100% Calm Calm -- 29.98 in1015.2 mb 0.00 in0.0 mm 0.00 in0.0 mm 0.01 in0.3 mm
03:30 AM 60.3°F15.7°C 60.3°F15.7°C 100% Calm Calm -- 29.98 in1015.2 mb 0.00 in0.0 mm 0.00 in0.0 mm 0.01 in0.3 mm
03:15 AM 60.4°F15.8°C 60.5°F15.8°C 100% Calm Calm 0.8 mph1.3 kmh 29.98 in1015.2 mb 0.00 in0.0 mm 0.00 in0.0 mm 0.01 in0.3 mm
03:00 AM 60.4°F15.8°C 60.5°F15.8°C 100% Calm Calm -- 29.98 in1015.2 mb 0.00 in0.0 mm 0.00 in0.0 mm 0.01 in0.3 mm
02:45 AM 60.4°F15.8°C 60.2°F15.7°C 99% Calm Calm 0.8 mph1.3 kmh 29.99 in1015.6 mb 0.00 in0.0 mm 0.00 in0.0 mm 0.01 in0.3 mm
02:30 AM 60.4°F15.8°C 60.2°F15.7°C 99% Calm Calm 0.8 mph1.3 kmh 29.99 in1015.6 mb 0.00 in0.0 mm 0.00 in0.0 mm 0.01 in0.3 mm
02:15 AM 60.6°F15.9°C 60.1°F15.6°C 98% Calm Calm 0.8 mph1.3 kmh 30.00 in1015.9 mb 0.00 in0.0 mm 0.00 in0.0 mm 0.01 in0.3 mm
02:00 AM 60.8°F16.0°C 60.0°F15.6°C 97% Calm Calm 0.8 mph1.3 kmh 29.99 in1015.6 mb 0.00 in0.0 mm 0.00 in0.0 mm 0.01 in0.3 mm
01:45 AM 61.2°F16.2°C 60.0°F15.6°C 96% Calm Calm 2.0 mph3.2 kmh 30.00 in1015.9 mb 0.00 in0.0 mm 0.00 in0.0 mm 0.01 in0.3 mm
01:30 AM 61.5°F16.4°C 60.1°F15.6°C 95% Calm Calm 0.8 mph1.3 kmh 29.99 in1015.6 mb 0.01 in0.3 mm 0.00 in0.0 mm 0.01 in0.3 mm
01:15 AM 62.6°F17.0°C 60.9°F16.1°C 94% 0.8 mph SW1.3 kmh SW 3.9 mph6.3 kmh 30.00 in1015.9 mb 0.01 in0.3 mm 0.00 in0.0 mm 0.01 in0.3 mm
01:00 AM 64.0°F17.8°C 61.4°F16.3°C 91% Calm Calm 3.9 mph6.3 kmh 29.99 in1015.6 mb 0.01 in0.3 mm 0.00 in0.0 mm 0.01 in0.3 mm
12:45 AM 67.3°F19.6°C 62.3°F16.8°C 84% 0.8 mph SSW1.3 kmh SSW 13.4 mph21.6 kmh 29.98 in1015.2 mb 0.01 in0.3 mm 0.04 in1.0 mm 0.01 in0.3 mm
12:30 AM 70.0°F21.1°C 62.5°F16.9°C 77% Calm Calm 6.7 mph10.8 kmh 29.96 in1014.6 mb 0.00 in0.0 mm 0.00 in0.0 mm 0.00 in0.0 mm
12:15 AM 69.6°F20.9°C 62.5°F16.9°C 78% Calm Calm 2.8 mph4.5 kmh 29.95 in1014.2 mb 0.00 in0.0 mm 0.00 in0.0 mm 0.00 in0.0 mm
12:00 AM 70.0°F21.1°C 62.5°F16.9°C 77% Calm Calm 4.8 mph7.7 kmh 29.95 in1014.2 mb 0.00 in0.0 mm 0.00 in0.0 mm 0.00 in0.0 mm